Time;durP1;ratioP1;P1;durP2;ratioP2;P2;SDS_P1;SDS_P2;PMS_P1;PMS_P2;Temp;Humidity;BMP_temperature;BMP_pressure;BME280_temperature;BME280_humidity;BME280_pressure;Samples;Min_cycle;Max_cycle;Signal;HPM_P1;HPM_P2
2023/05/15 00:00:30;;;;;;;11.90;6.85;;;;;;;;;;5071162;28;20056;-70
2023/05/15 00:02:56;;;;;;;9.75;6.20;;;;;;;;;;5070481;28;20060;-67
2023/05/15 00:05:22;;;;;;;11.55;6.70;;;;;;;;;;5070166;28;20025;-68
2023/05/15 00:07:47;;;;;;;11.63;6.70;;;;;;;;;;5070432;28;20382;-69
2023/05/15 00:10:12;;;;;;;10.15;6.63;;;;;;;;;;5070234;28;20016;-69
2023/05/15 00:12:37;;;;;;;9.65;6.07;;;;;;;;;;5070312;28;20020;-68
2023/05/15 00:15:03;;;;;;;10.27;5.90;;;;;;;;;;5070030;28;20027;-68
2023/05/15 00:17:28;;;;;;;12.80;7.18;;;;;;;;;;5070199;28;20033;-68
2023/05/15 00:19:56;;;;;;;17.33;7.97;;;;;;;;;;5070504;28;20024;-68
2023/05/15 00:22:21;;;;;;;11.18;6.95;;;;;;;;;;5070344;28;20036;-67
2023/05/15 00:24:47;;;;;;;12.60;7.13;;;;;;;;;;5069406;28;20020;-68
2023/05/15 00:27:12;;;;;;;11.85;8.07;;;;;;;;;;5070305;28;20020;-69
2023/05/15 00:29:37;;;;;;;11.23;6.47;;;;;;;;;;5070167;28;20027;-69
2023/05/15 00:32:02;;;;;;;13.02;7.82;;;;;;;;;;5068904;28;20024;-68
2023/05/15 00:34:28;;;;;;;19.73;8.98;;;;;;;;;;5069879;28;20113;-69
2023/05/15 00:36:53;;;;;;;14.18;8.70;;;;;;;;;;5064727;28;20016;-69
2023/05/15 00:39:18;;;;;;;16.67;8.02;;;;;;;;;;5069812;28;20021;-69
2023/05/15 00:41:44;;;;;;;14.60;7.95;;;;;;;;;;5070309;28;20021;-70
2023/05/15 00:44:13;;;;;;;12.32;8.02;;;;;;;;;;5068399;28;20377;-69
2023/05/15 00:46:38;;;;;;;15.02;6.93;;;;;;;;;;5069543;28;20016;-69
2023/05/15 00:49:12;;;;;;;11.88;6.80;;;;;;;;;;5070071;28;20553;-70
2023/05/15 00:51:38;;;;;;;13.15;6.80;;;;;;;;;;5069966;28;20032;-70
2023/05/15 00:54:03;;;;;;;13.68;7.00;;;;;;;;;;5068684;28;20021;-69
2023/05/15 00:56:30;;;;;;;12.90;7.15;;;;;;;;;;5079454;22;20040;-63
2023/05/15 00:58:58;;;;;;;11.70;7.45;;;;;;;;;;5037588;28;20120;-64
2023/05/15 01:01:24;;;;;;;12.32;7.18;;;;;;;;;;5048372;28;20037;-60
2023/05/15 01:03:49;;;;;;;13.57;7.25;;;;;;;;;;5039380;28;20063;-63
2023/05/15 01:06:14;;;;;;;13.80;6.82;;;;;;;;;;5042101;28;20045;-62
2023/05/15 01:08:46;;;;;;;12.50;7.50;;;;;;;;;;5029347;28;20014;-63
2023/05/15 01:11:12;;;;;;;12.23;6.93;;;;;;;;;;5029832;28;20067;-59
2023/05/15 01:13:38;;;;;;;13.48;7.32;;;;;;;;;;5028680;28;20033;-63
2023/05/15 01:16:03;;;;;;;10.45;6.13;;;;;;;;;;5030206;28;20017;-62
2023/05/15 01:18:31;;;;;;;11.10;7.55;;;;;;;;;;5029806;28;20025;-64
2023/05/15 01:20:59;;;;;;;11.47;6.57;;;;;;;;;;5029893;28;20083;-64
2023/05/15 01:23:33;;;;;;;13.07;7.10;;;;;;;;;;5029215;28;20108;-63
2023/05/15 01:26:11;;;;;;;11.90;7.13;;;;;;;;;;5027561;28;20024;-63
2023/05/15 01:28:43;;;;;;;12.75;7.15;;;;;;;;;;5029521;28;20014;-61
2023/05/15 01:31:14;;;;;;;10.90;6.78;;;;;;;;;;5030650;28;20013;-64
2023/05/15 01:33:41;;;;;;;11.13;7.13;;;;;;;;;;5029976;28;20060;-63
2023/05/15 01:36:11;;;;;;;10.85;6.68;;;;;;;;;;5025407;28;20077;-63
2023/05/15 01:38:47;;;;;;;15.88;7.68;;;;;;;;;;5029822;28;20029;-61
2023/05/15 01:41:31;;;;;;;12.52;6.75;;;;;;;;;;5030250;28;20029;-64
2023/05/15 01:43:59;;;;;;;11.18;6.50;;;;;;;;;;5028892;28;20074;-64
2023/05/15 01:46:26;;;;;;;11.02;6.95;;;;;;;;;;5029777;28;20018;-62
2023/05/15 01:48:53;;;;;;;15.13;8.02;;;;;;;;;;5029999;28;20064;-62
2023/05/15 01:51:19;;;;;;;13.00;6.95;;;;;;;;;;5028908;28;20017;-64
2023/05/15 01:53:45;;;;;;;13.10;7.65;;;;;;;;;;5028451;28;20028;-63
2023/05/15 01:56:12;;;;;;;12.15;7.18;;;;;;;;;;5029427;28;20017;-63
2023/05/15 01:58:38;;;;;;;10.38;6.70;;;;;;;;;;5029033;28;20029;-63
2023/05/15 02:01:04;;;;;;;12.35;7.18;;;;;;;;;;5029991;28;20029;-62
2023/05/15 02:03:33;;;;;;;14.43;7.50;;;;;;;;;;5028441;28;20079;-62
2023/05/15 02:05:59;;;;;;;18.17;7.45;;;;;;;;;;5028777;28;20053;-64
2023/05/15 02:08:27;;;;;;;12.60;7.68;;;;;;;;;;5029770;28;20041;-62
2023/05/15 02:10:53;;;;;;;14.40;8.55;;;;;;;;;;5029683;28;20025;-66
2023/05/15 02:13:18;;;;;;;14.15;8.20;;;;;;;;;;5028945;28;20025;-64
2023/05/15 02:15:44;;;;;;;17.58;8.75;;;;;;;;;;5029887;28;20026;-61
2023/05/15 02:18:10;;;;;;;10.80;7.25;;;;;;;;;;5029164;28;20029;-64
2023/05/15 02:20:35;;;;;;;13.50;8.18;;;;;;;;;;5029737;28;20479;-64
2023/05/15 02:23:00;;;;;;;15.07;8.15;;;;;;;;;;5029131;28;20487;-65
2023/05/15 02:25:33;;;;;;;14.05;8.98;;;;;;;;;;5028779;28;20494;-65
2023/05/15 02:27:59;;;;;;;13.35;8.57;;;;;;;;;;5029750;28;20029;-65
2023/05/15 02:30:48;;;;;;;15.90;8.15;;;;;;;;;;5030153;28;20022;-62
2023/05/15 02:33:42;;;;;;;17.35;8.32;;;;;;;;;;5028912;28;20035;-62
2023/05/15 02:36:09;;;;;;;18.70;8.48;;;;;;;;;;5002945;28;20677;-64
2023/05/15 02:38:47;;;;;;;20.08;9.32;;;;;;;;;;5032470;28;20048;-64
2023/05/15 02:41:13;;;;;;;15.10;9.32;;;;;;;;;;5032560;28;20028;-64
2023/05/15 02:43:39;;;;;;;13.02;8.50;;;;;;;;;;5031311;28;20022;-63
2023/05/15 02:46:06;;;;;;;18.45;9.20;;;;;;;;;;5031624;28;20116;-64
2023/05/15 02:48:31;;;;;;;17.80;9.38;;;;;;;;;;5032107;28;20512;-62
2023/05/15 02:50:57;;;;;;;16.67;9.65;;;;;;;;;;5032529;28;20052;-62
2023/05/15 02:53:22;;;;;;;16.92;10.02;;;;;;;;;;5031864;28;20097;-61
2023/05/15 02:55:47;;;;;;;16.70;10.02;;;;;;;;;;5031844;28;20060;-66
2023/05/15 02:58:13;;;;;;;17.15;9.45;;;;;;;;;;5031789;28;20079;-64
2023/05/15 03:00:38;;;;;;;15.63;10.18;;;;;;;;;;5032710;28;20017;-65
2023/05/15 03:03:03;;;;;;;16.20;9.95;;;;;;;;;;5032034;28;20028;-64
2023/05/15 03:05:28;;;;;;;16.63;8.70;;;;;;;;;;5031471;28;20029;-64
2023/05/15 03:07:53;;;;;;;17.48;9.02;;;;;;;;;;5032014;28;20023;-64
2023/05/15 03:10:22;;;;;;;15.75;9.43;;;;;;;;;;5032566;28;20043;-63
2023/05/15 03:12:47;;;;;;;17.92;10.02;;;;;;;;;;5031691;28;20033;-64
2023/05/15 03:15:12;;;;;;;16.40;9.73;;;;;;;;;;5031697;28;20433;-63
2023/05/15 03:17:38;;;;;;;18.65;9.45;;;;;;;;;;5031348;28;20532;-64
2023/05/15 03:20:03;;;;;;;16.52;9.13;;;;;;;;;;5031788;28;20017;-63
2023/05/15 03:22:29;;;;;;;17.08;10.80;;;;;;;;;;5031147;28;20026;-65
2023/05/15 03:24:54;;;;;;;16.52;9.95;;;;;;;;;;5030718;28;20018;-64
2023/05/15 03:27:20;;;;;;;13.63;9.05;;;;;;;;;;5031503;28;20067;-63
2023/05/15 03:29:45;;;;;;;18.25;8.90;;;;;;;;;;5032267;28;20017;-66
2023/05/15 03:32:10;;;;;;;21.52;9.10;;;;;;;;;;5032071;28;20119;-64
2023/05/15 03:34:36;;;;;;;14.13;9.07;;;;;;;;;;5029536;28;20116;-64
2023/05/15 03:37:01;;;;;;;13.90;8.90;;;;;;;;;;5026902;28;20033;-62
2023/05/15 03:39:26;;;;;;;13.93;8.98;;;;;;;;;;5031744;28;20028;-64
2023/05/15 03:41:54;;;;;;;16.05;9.10;;;;;;;;;;5031752;28;20093;-63
2023/05/15 03:44:20;;;;;;;14.77;8.98;;;;;;;;;;5030501;28;20454;-63
2023/05/15 03:46:45;;;;;;;14.82;8.90;;;;;;;;;;5031342;28;20495;-64
2023/05/15 03:49:10;;;;;;;13.93;8.70;;;;;;;;;;5030203;28;20025;-60
2023/05/15 03:51:35;;;;;;;14.60;8.90;;;;;;;;;;5031562;28;20029;-63
2023/05/15 03:54:03;;;;;;;16.02;9.57;;;;;;;;;;5029820;28;20541;-62
2023/05/15 03:56:29;;;;;;;16.10;9.20;;;;;;;;;;5031284;28;20056;-62
2023/05/15 03:58:54;;;;;;;18.63;8.68;;;;;;;;;;5030837;28;20286;-64
2023/05/15 04:01:20;;;;;;;14.20;8.80;;;;;;;;;;5031044;28;20065;-62
2023/05/15 04:03:45;;;;;;;15.13;8.80;;;;;;;;;;5029920;28;20021;-64
2023/05/15 04:06:10;;;;;;;13.52;9.05;;;;;;;;;;5030831;28;20467;-62
2023/05/15 04:08:35;;;;;;;15.38;9.27;;;;;;;;;;5030706;28;20024;-64
2023/05/15 04:11:01;;;;;;;13.13;8.90;;;;;;;;;;5030633;28;20463;-64
2023/05/15 04:13:26;;;;;;;14.18;8.88;;;;;;;;;;5030253;28;20017;-64
2023/05/15 04:15:52;;;;;;;14.18;9.13;;;;;;;;;;5030690;28;20026;-63
2023/05/15 04:18:17;;;;;;;19.27;8.75;;;;;;;;;;5030158;28;20037;-63
2023/05/15 04:20:43;;;;;;;16.92;8.95;;;;;;;;;;5027566;28;20021;-62
2023/05/15 04:23:08;;;;;;;13.50;8.88;;;;;;;;;;5022602;28;20086;-65
2023/05/15 04:25:33;;;;;;;13.45;8.98;;;;;;;;;;5031360;28;20025;-63
2023/05/15 04:27:58;;;;;;;17.02;10.18;;;;;;;;;;5035059;28;20467;-64
2023/05/15 04:30:24;;;;;;;14.45;8.68;;;;;;;;;;5029271;28;20049;-65
2023/05/15 04:32:50;;;;;;;12.88;8.57;;;;;;;;;;5029927;28;20497;-64
2023/05/15 04:35:16;;;;;;;11.40;7.68;;;;;;;;;;5029386;28;20025;-66
2023/05/15 04:37:42;;;;;;;16.90;8.70;;;;;;;;;;5024368;28;20420;-65
2023/05/15 04:40:08;;;;;;;13.45;9.20;;;;;;;;;;5031077;28;20021;-63
2023/05/15 04:42:33;;;;;;;15.60;10.35;;;;;;;;;;5029750;28;20772;-63
2023/05/15 04:44:59;;;;;;;17.88;10.07;;;;;;;;;;5030328;28;20475;-61
2023/05/15 04:47:24;;;;;;;14.18;9.13;;;;;;;;;;5030763;28;20467;-63
2023/05/15 04:49:50;;;;;;;12.00;8.13;;;;;;;;;;5029985;28;20022;-68
2023/05/15 04:52:15;;;;;;;13.70;7.50;;;;;;;;;;5028876;28;20029;-65
2023/05/15 04:54:41;;;;;;;12.27;7.38;;;;;;;;;;5029599;28;20036;-64
2023/05/15 04:57:06;;;;;;;12.65;7.85;;;;;;;;;;5040592;28;20498;-60
2023/05/15 04:59:31;;;;;;;13.45;9.20;;;;;;;;;;5029431;28;20060;-66
2023/05/15 05:01:56;;;;;;;18.58;8.00;;;;;;;;;;5029054;28;20033;-64
2023/05/15 05:04:22;;;;;;;13.95;8.38;;;;;;;;;;5024668;28;20033;-64
2023/05/15 05:06:47;;;;;;;12.15;7.00;;;;;;;;;;5027771;28;20066;-64
2023/05/15 05:09:13;;;;;;;12.27;7.50;;;;;;;;;;5029091;28;20494;-65
2023/05/15 05:11:42;;;;;;;13.57;7.93;;;;;;;;;;5028565;28;20403;-65
2023/05/15 05:14:08;;;;;;;12.60;8.18;;;;;;;;;;5028344;28;20025;-64
2023/05/15 05:16:33;;;;;;;13.55;7.93;;;;;;;;;;5029867;28;20384;-65
2023/05/15 05:18:58;;;;;;;12.80;8.20;;;;;;;;;;5026642;28;20024;-64
2023/05/15 05:21:23;;;;;;;19.83;8.13;;;;;;;;;;5029787;28;20025;-66
2023/05/15 05:23:48;;;;;;;14.35;8.77;;;;;;;;;;5032778;28;20875;-64
2023/05/15 05:26:14;;;;;;;16.20;8.15;;;;;;;;;;5021346;28;21389;-63
2023/05/15 05:28:39;;;;;;;15.32;7.78;;;;;;;;;;5016203;28;20017;-64
2023/05/15 05:31:05;;;;;;;14.00;8.05;;;;;;;;;;5015800;28;20105;-65
2023/05/15 05:33:31;;;;;;;112.47;32.47;;;;;;;;;;5016895;28;20033;-62
2023/05/15 05:35:56;;;;;;;17.00;9.43;;;;;;;;;;5016720;28;20030;-64
2023/05/15 05:38:21;;;;;;;21.50;9.13;;;;;;;;;;5022826;28;20026;-64
2023/05/15 05:40:46;;;;;;;14.30;8.68;;;;;;;;;;5026098;28;20033;-64
2023/05/15 05:43:12;;;;;;;12.23;7.45;;;;;;;;;;5027677;28;20017;-61
2023/05/15 05:45:37;;;;;;;11.13;7.43;;;;;;;;;;5029834;28;20099;-62
2023/05/15 05:48:02;;;;;;;13.55;7.60;;;;;;;;;;5029282;28;20036;-65
2023/05/15 05:50:27;;;;;;;11.70;7.45;;;;;;;;;;5029403;28;20022;-63
2023/05/15 05:52:53;;;;;;;14.90;8.38;;;;;;;;;;5028994;28;20025;-64
2023/05/15 05:55:18;;;;;;;15.05;9.55;;;;;;;;;;5028270;28;20172;-64
2023/05/15 05:57:43;;;;;;;13.23;8.55;;;;;;;;;;5028868;28;20128;-66
2023/05/15 06:00:09;;;;;;;14.63;8.63;;;;;;;;;;5028984;28;20045;-66
2023/05/15 06:02:35;;;;;;;16.67;8.05;;;;;;;;;;5029270;28;20025;-64
2023/05/15 06:05:01;;;;;;;12.30;8.05;;;;;;;;;;5027742;28;20018;-65
2023/05/15 06:07:27;;;;;;;20.20;9.25;;;;;;;;;;5028996;28;20036;-64
2023/05/15 06:09:52;;;;;;;13.23;7.75;;;;;;;;;;5028941;28;20048;-64
2023/05/15 06:12:17;;;;;;;16.58;9.13;;;;;;;;;;5032273;28;20034;-66
2023/05/15 06:14:42;;;;;;;14.85;9.40;;;;;;;;;;5033151;28;20022;-65
2023/05/15 06:17:08;;;;;;;13.95;9.10;;;;;;;;;;5033061;28;20017;-64
2023/05/15 06:19:33;;;;;;;13.68;8.88;;;;;;;;;;5033493;28;20014;-60
2023/05/15 06:21:58;;;;;;;18.25;8.63;;;;;;;;;;5033097;28;20026;-64
2023/05/15 06:24:23;;;;;;;13.80;8.90;;;;;;;;;;5031983;28;20070;-63
2023/05/15 06:26:48;;;;;;;14.23;9.32;;;;;;;;;;5034143;28;20021;-65
2023/05/15 06:29:14;;;;;;;13.85;9.07;;;;;;;;;;5033622;28;20426;-63
2023/05/15 06:31:39;;;;;;;14.20;9.00;;;;;;;;;;5033106;28;20032;-64
2023/05/15 06:34:05;;;;;;;13.48;8.80;;;;;;;;;;5028252;28;20398;-59
2023/05/15 06:36:30;;;;;;;19.23;8.98;;;;;;;;;;5025704;28;20044;-63
2023/05/15 06:38:55;;;;;;;15.45;8.98;;;;;;;;;;5035960;28;20022;-64
2023/05/15 06:41:21;;;;;;;15.85;9.73;;;;;;;;;;5036933;28;20033;-65
2023/05/15 06:43:46;;;;;;;12.82;8.80;;;;;;;;;;5037234;28;20055;-65
2023/05/15 06:46:14;;;;;;;15.68;9.45;;;;;;;;;;5027162;28;20108;-63
2023/05/15 06:48:40;;;;;;;14.90;8.57;;;;;;;;;;5031572;28;20014;-64
2023/05/15 06:51:05;;;;;;;13.65;8.77;;;;;;;;;;5032527;28;20017;-64
2023/05/15 06:53:30;;;;;;;14.13;8.90;;;;;;;;;;5031368;28;20518;-62
2023/05/15 06:55:55;;;;;;;14.40;9.68;;;;;;;;;;5031713;28;20025;-64
2023/05/15 06:58:21;;;;;;;19.02;9.98;;;;;;;;;;5058416;22;20111;-67
2023/05/15 07:00:46;;;;;;;14.75;9.45;;;;;;;;;;5059098;28;20116;-69
2023/05/15 07:03:13;;;;;;;17.38;8.98;;;;;;;;;;5049382;28;20039;-67
2023/05/15 07:05:38;;;;;;;15.18;9.27;;;;;;;;;;5050054;28;20033;-69
2023/05/15 07:08:03;;;;;;;15.27;9.35;;;;;;;;;;5037388;28;20024;-66
2023/05/15 07:10:29;;;;;;;17.20;9.20;;;;;;;;;;5035009;28;20060;-69
2023/05/15 07:12:54;;;;;;;20.23;9.75;;;;;;;;;;5036134;28;20037;-67
2023/05/15 07:15:19;;;;;;;17.10;9.25;;;;;;;;;;5050965;28;20047;-70
2023/05/15 07:17:45;;;;;;;12.52;8.40;;;;;;;;;;5050813;28;20044;-70
2023/05/15 07:20:10;;;;;;;18.02;9.13;;;;;;;;;;5042525;28;20026;-69
2023/05/15 07:22:35;;;;;;;16.52;8.45;;;;;;;;;;5030359;28;20029;-68
2023/05/15 07:25:00;;;;;;;13.40;9.50;;;;;;;;;;5032154;28;20020;-68
2023/05/15 07:27:26;;;;;;;13.52;8.60;;;;;;;;;;5029593;28;20013;-68
2023/05/15 07:29:52;;;;;;;17.50;9.27;;;;;;;;;;5029819;28;20022;-66
2023/05/15 07:32:17;;;;;;;13.93;9.13;;;;;;;;;;5017920;28;20105;-71
2023/05/15 07:34:42;;;;;;;22.45;8.88;;;;;;;;;;5028125;28;20112;-69
2023/05/15 07:37:08;;;;;;;14.13;9.00;;;;;;;;;;5032266;28;20070;-70
2023/05/15 07:39:33;;;;;;;10.90;7.50;;;;;;;;;;5035057;28;20100;-67
2023/05/15 07:41:59;;;;;;;13.38;8.27;;;;;;;;;;5035558;28;20022;-69
2023/05/15 07:44:24;;;;;;;15.93;8.18;;;;;;;;;;5028176;28;20021;-67
2023/05/15 07:46:50;;;;;;;12.88;8.75;;;;;;;;;;5029171;28;20488;-68
2023/05/15 07:49:15;;;;;;;20.67;9.18;;;;;;;;;;5030082;28;20041;-68
2023/05/15 07:51:41;;;;;;;14.35;8.73;;;;;;;;;;5032750;28;20037;-67
2023/05/15 07:54:06;;;;;;;16.58;8.02;;;;;;;;;;5029240;28;20029;-67
2023/05/15 07:56:32;;;;;;;15.20;7.95;;;;;;;;;;5030153;28;20471;-69
2023/05/15 07:58:57;;;;;;;14.68;8.55;;;;;;;;;;5028557;28;20041;-69
2023/05/15 08:01:23;;;;;;;13.48;7.90;;;;;;;;;;5029993;28;20502;-67
2023/05/15 08:03:48;;;;;;;29.05;8.25;;;;;;;;;;5028987;28;20025;-72
2023/05/15 08:06:14;;;;;;;16.05;7.82;;;;;;;;;;5029733;28;20018;-67
2023/05/15 08:08:40;;;;;;;13.38;8.45;;;;;;;;;;5027771;28;20612;-64
2023/05/15 08:11:05;;;;;;;20.25;7.65;;;;;;;;;;5029640;28;20101;-70
2023/05/15 08:13:30;;;;;;;13.60;7.45;;;;;;;;;;5028090;28;20074;-69
2023/05/15 08:15:55;;;;;;;15.40;7.15;;;;;;;;;;5030525;28;20025;-69
2023/05/15 08:18:21;;;;;;;17.92;7.70;;;;;;;;;;5030807;28;20100;-69
2023/05/15 08:20:47;;;;;;;12.57;6.75;;;;;;;;;;5029807;28;20444;-70
2023/05/15 08:23:12;;;;;;;15.88;6.65;;;;;;;;;;5027046;28;20032;-68
2023/05/15 08:25:37;;;;;;;10.82;6.25;;;;;;;;;;5028611;28;20057;-71
2023/05/15 08:28:03;;;;;;;14.55;6.65;;;;;;;;;;5028678;28;20419;-69
2023/05/15 08:30:28;;;;;;;9.43;4.38;;;;;;;;;;5029725;28;20413;-65
2023/05/15 08:32:53;;;;;;;6.97;3.88;;;;;;;;;;5027770;28;20025;-68
2023/05/15 08:35:18;;;;;;;9.98;3.83;;;;;;;;;;5028532;28;20021;-65
2023/05/15 08:37:44;;;;;;;6.70;4.22;;;;;;;;;;5028854;28;20025;-68
2023/05/15 08:40:09;;;;;;;7.07;3.38;;;;;;;;;;5028781;28;20021;-66
2023/05/15 08:42:38;;;;;;;11.27;3.42;;;;;;;;;;5026651;28;20040;-68
2023/05/15 08:45:05;;;;;;;9.80;3.80;;;;;;;;;;5027827;28;20638;-67
2023/05/15 08:47:34;;;;;;;8.50;3.83;;;;;;;;;;5029085;28;20041;-70
2023/05/15 08:49:59;;;;;;;7.38;4.00;;;;;;;;;;5028973;28;20467;-67
2023/05/15 08:52:25;;;;;;;7.28;3.38;;;;;;;;;;5028461;28;20107;-71
2023/05/15 08:54:51;;;;;;;7.78;3.35;;;;;;;;;;5028175;28;20445;-68
2023/05/15 08:57:16;;;;;;;18.13;4.25;;;;;;;;;;5028318;28;20437;-71
2023/05/15 08:59:42;;;;;;;7.13;3.30;;;;;;;;;;5028709;28;20499;-68
2023/05/15 09:02:07;;;;;;;6.50;3.22;;;;;;;;;;5028252;28;20032;-70
2023/05/15 09:04:32;;;;;;;7.72;3.03;;;;;;;;;;5028961;28;20017;-69
2023/05/15 09:07:02;;;;;;;6.82;3.75;;;;;;;;;;5028977;28;20018;-68
2023/05/15 09:09:28;;;;;;;8.65;3.53;;;;;;;;;;5028656;28;20059;-70
2023/05/15 09:11:53;;;;;;;7.13;3.72;;;;;;;;;;5026850;28;20096;-69
2023/05/15 09:14:18;;;;;;;11.23;3.90;;;;;;;;;;5027751;28;20099;-67
2023/05/15 09:16:45;;;;;;;14.70;3.42;;;;;;;;;;5027301;28;20479;-71
2023/05/15 09:19:11;;;;;;;8.10;3.83;;;;;;;;;;5029293;28;20032;-68
2023/05/15 09:21:36;;;;;;;7.95;3.28;;;;;;;;;;5027161;28;20018;-69
2023/05/15 09:24:16;;;;;;;6.85;3.60;;;;;;;;;;5027140;28;20035;-68
2023/05/15 09:26:45;;;;;;;10.20;3.50;;;;;;;;;;5028624;28;20017;-69
2023/05/15 09:29:11;;;;;;;11.43;3.10;;;;;;;;;;5028443;28;20017;-68
2023/05/15 09:31:36;;;;;;;6.53;3.95;;;;;;;;;;5028698;28;20098;-71
2023/05/15 09:34:03;;;;;;;10.32;3.80;;;;;;;;;;5027780;28;20106;-69
2023/05/15 09:36:29;;;;;;;8.70;3.53;;;;;;;;;;5028436;28;20040;-70
2023/05/15 09:38:58;;;;;;;8.20;3.63;;;;;;;;;;5026958;28;20025;-69
2023/05/15 09:41:24;;;;;;;12.50;4.25;;;;;;;;;;5028242;28;20026;-67
2023/05/15 09:43:50;;;;;;;7.13;3.20;;;;;;;;;;5025856;28;20044;-70
2023/05/15 09:46:16;;;;;;;7.75;3.25;;;;;;;;;;5028505;28;20017;-71
2023/05/15 09:48:41;;;;;;;7.03;3.70;;;;;;;;;;5030184;28;20013;-67
2023/05/15 09:51:13;;;;;;;6.85;3.42;;;;;;;;;;5028677;28;20117;-70
2023/05/15 09:53:38;;;;;;;13.00;3.58;;;;;;;;;;5027439;28;20100;-69
2023/05/15 09:56:04;;;;;;;8.93;3.22;;;;;;;;;;5027784;28;20396;-65
2023/05/15 09:58:29;;;;;;;11.27;3.80;;;;;;;;;;5025584;28;20091;-68
2023/05/15 10:00:58;;;;;;;8.77;3.42;;;;;;;;;;5028492;28;20032;-72
2023/05/15 10:03:23;;;;;;;9.52;3.50;;;;;;;;;;5027723;28;20060;-69
2023/05/15 10:05:48;;;;;;;8.23;3.65;;;;;;;;;;5026884;28;20053;-71
2023/05/15 10:08:14;;;;;;;10.60;3.70;;;;;;;;;;5028164;28;20025;-65
2023/05/15 10:10:40;;;;;;;9.23;2.80;;;;;;;;;;5027247;28;20399;-69
2023/05/15 10:13:06;;;;;;;7.28;3.55;;;;;;;;;;5025838;28;20557;-66
2023/05/15 10:15:32;;;;;;;8.95;3.45;;;;;;;;;;5026625;28;20060;-68
2023/05/15 10:17:57;;;;;;;12.75;3.78;;;;;;;;;;5027434;28;20052;-69
2023/05/15 10:20:23;;;;;;;19.05;4.53;;;;;;;;;;5026396;28;20194;-68
2023/05/15 10:22:50;;;;;;;6.65;3.40;;;;;;;;;;5026159;28;20022;-69
2023/05/15 10:25:34;;;;;;;7.20;3.03;;;;;;;;;;5026532;28;20029;-69
2023/05/15 10:28:00;;;;;;;12.55;3.80;;;;;;;;;;5028113;28;20104;-70
2023/05/15 10:30:25;;;;;;;8.40;3.70;;;;;;;;;;5028324;28;20495;-69
2023/05/15 10:32:51;;;;;;;13.95;3.53;;;;;;;;;;5027867;28;20100;-68
2023/05/15 10:35:16;;;;;;;6.40;3.22;;;;;;;;;;5027026;28;20022;-70
2023/05/15 10:37:43;;;;;;;8.48;3.05;;;;;;;;;;5027096;28;20421;-68
2023/05/15 10:40:09;;;;;;;6.07;3.00;;;;;;;;;;5027447;28;20051;-69
2023/05/15 10:42:35;;;;;;;8.20;3.15;;;;;;;;;;5026287;28;20052;-70
2023/05/15 10:45:01;;;;;;;13.20;4.28;;;;;;;;;;5027006;28;20022;-71
2023/05/15 10:47:27;;;;;;;7.15;3.67;;;;;;;;;;5043051;28;20442;-68
2023/05/15 10:49:53;;;;;;;17.55;3.80;;;;;;;;;;5027461;28;20076;-65
2023/05/15 10:52:19;;;;;;;17.65;3.40;;;;;;;;;;5026672;28;20029;-69
2023/05/15 10:54:44;;;;;;;9.57;3.08;;;;;;;;;;5026615;28;20018;-71
2023/05/15 10:57:10;;;;;;;7.85;3.25;;;;;;;;;;5027405;28;20036;-68
2023/05/15 10:59:35;;;;;;;5.32;2.90;;;;;;;;;;5029788;28;20055;-66
2023/05/15 11:02:20;;;;;;;5.40;2.80;;;;;;;;;;5029347;28;20119;-70
2023/05/15 11:04:45;;;;;;;6.50;3.00;;;;;;;;;;5030193;28;20387;-67
2023/05/15 11:07:12;;;;;;;5.28;2.97;;;;;;;;;;5029205;28;20487;-69
2023/05/15 11:09:37;;;;;;;13.43;3.55;;;;;;;;;;5030706;28;20025;-70
2023/05/15 11:12:03;;;;;;;7.70;3.20;;;;;;;;;;5029729;28;20096;-69
2023/05/15 11:14:30;;;;;;;12.38;3.83;;;;;;;;;;5029516;28;20037;-69
2023/05/15 11:16:59;;;;;;;10.88;3.85;;;;;;;;;;5030707;28;20033;-67
2023/05/15 11:19:27;;;;;;;6.72;3.40;;;;;;;;;;5031598;28;20025;-69
2023/05/15 11:21:56;;;;;;;8.35;3.05;;;;;;;;;;5029515;28;20018;-68
2023/05/15 11:24:25;;;;;;;7.07;3.35;;;;;;;;;;5029976;28;20063;-70
2023/05/15 11:26:51;;;;;;;8.43;3.40;;;;;;;;;;5030638;28;20026;-69
2023/05/15 11:29:17;;;;;;;8.88;3.58;;;;;;;;;;5040806;28;20498;-66
2023/05/15 11:31:42;;;;;;;7.15;3.80;;;;;;;;;;5043996;28;20112;-68
2023/05/15 11:34:07;;;;;;;9.50;4.13;;;;;;;;;;5037006;28;20448;-68
2023/05/15 11:36:33;;;;;;;10.20;3.45;;;;;;;;;;5031085;28;20029;-70
2023/05/15 11:38:58;;;;;;;13.75;3.95;;;;;;;;;;5030288;28;20033;-69
2023/05/15 11:41:30;;;;;;;8.82;3.65;;;;;;;;;;5030624;28;20051;-69
2023/05/15 11:43:56;;;;;;;7.80;3.55;;;;;;;;;;5029207;28;20013;-69
2023/05/15 11:46:21;;;;;;;12.48;4.07;;;;;;;;;;5028302;28;20111;-69
2023/05/15 11:48:46;;;;;;;10.50;3.97;;;;;;;;;;5030257;28;20017;-65
2023/05/15 11:51:16;;;;;;;8.65;3.75;;;;;;;;;;5029996;28;20086;-68
2023/05/15 11:53:41;;;;;;;10.88;3.60;;;;;;;;;;5029041;28;20118;-69
2023/05/15 11:56:11;;;;;;;13.40;3.85;;;;;;;;;;5029728;28;20100;-66
2023/05/15 11:58:37;;;;;;;17.70;5.03;;;;;;;;;;5029570;28;20037;-67
2023/05/15 12:01:02;;;;;;;8.65;3.85;;;;;;;;;;5028168;28;20125;-67
2023/05/15 12:03:36;;;;;;;12.40;3.58;;;;;;;;;;5029215;28;20030;-65
2023/05/15 12:06:02;;;;;;;14.75;4.22;;;;;;;;;;5031860;28;20032;-71
2023/05/15 12:08:32;;;;;;;9.93;4.53;;;;;;;;;;5028988;28;20014;-70
2023/05/15 12:10:57;;;;;;;17.02;4.75;;;;;;;;;;5028069;28;20028;-66
2023/05/15 12:13:23;;;;;;;10.40;3.92;;;;;;;;;;5028816;28;20030;-69
2023/05/15 12:15:48;;;;;;;11.75;4.85;;;;;;;;;;5028838;28;20029;-66
2023/05/15 12:18:14;;;;;;;6.30;3.72;;;;;;;;;;5029648;28;20033;-69
2023/05/15 12:20:43;;;;;;;11.95;4.22;;;;;;;;;;5029677;28;20051;-67
2023/05/15 12:23:09;;;;;;;8.07;3.92;;;;;;;;;;5027453;28;20408;-66
2023/05/15 12:25:35;;;;;;;8.15;3.35;;;;;;;;;;5028295;28;20067;-71
2023/05/15 12:28:01;;;;;;;16.60;4.40;;;;;;;;;;5028416;28;20537;-68
2023/05/15 12:30:26;;;;;;;8.50;3.55;;;;;;;;;;5028904;28;20463;-67
2023/05/15 12:32:52;;;;;;;6.18;3.28;;;;;;;;;;5028007;28;20110;-69
2023/05/15 12:35:17;;;;;;;9.75;3.50;;;;;;;;;;5027966;28;20091;-70
2023/05/15 12:37:42;;;;;;;14.20;3.70;;;;;;;;;;5028772;28;20029;-68
2023/05/15 12:40:10;;;;;;;7.65;3.28;;;;;;;;;;5029115;28;20052;-67
2023/05/15 12:42:42;;;;;;;8.33;3.47;;;;;;;;;;5029065;28;20036;-69
2023/05/15 12:45:14;;;;;;;8.57;3.60;;;;;;;;;;5027667;28;20740;-72
2023/05/15 12:47:40;;;;;;;12.57;3.88;;;;;;;;;;5027483;28;20167;-67
2023/05/15 12:50:11;;;;;;;15.32;3.42;;;;;;;;;;5028689;28;20025;-69
2023/05/15 12:52:37;;;;;;;9.57;3.25;;;;;;;;;;5028747;28;20021;-67
2023/05/15 12:55:02;;;;;;;11.82;3.20;;;;;;;;;;5027883;28;20523;-71
2023/05/15 12:59:54;;;;;;;15.57;3.92;;;;;;;;;;5028130;28;20057;-67
2023/05/15 13:02:20;;;;;;;9.43;3.00;;;;;;;;;;5011885;28;20027;-68
2023/05/15 13:04:46;;;;;;;11.15;3.42;;;;;;;;;;5028508;28;20488;-67
2023/05/15 13:07:15;;;;;;;7.85;3.40;;;;;;;;;;5029186;28;20017;-68
2023/05/15 13:09:40;;;;;;;12.30;3.50;;;;;;;;;;5018493;28;20025;-69
2023/05/15 13:12:06;;;;;;;8.52;3.30;;;;;;;;;;5004872;28;20018;-68
2023/05/15 13:14:31;;;;;;;7.80;3.00;;;;;;;;;;5019016;28;20033;-68
2023/05/15 13:16:58;;;;;;;12.88;3.75;;;;;;;;;;5025660;28;20026;-68
2023/05/15 13:19:23;;;;;;;7.57;3.15;;;;;;;;;;5020077;28;20059;-69
2023/05/15 13:21:49;;;;;;;10.77;3.22;;;;;;;;;;5009994;28;20233;-68
2023/05/15 13:24:15;;;;;;;12.52;3.40;;;;;;;;;;5013367;28;20410;-68
2023/05/15 13:26:40;;;;;;;10.45;3.70;;;;;;;;;;5010469;28;20026;-68
2023/05/15 13:29:05;;;;;;;12.98;4.10;;;;;;;;;;5009950;28;20026;-69
2023/05/15 13:31:31;;;;;;;14.68;3.67;;;;;;;;;;5022998;28;20014;-67
2023/05/15 13:33:56;;;;;;;8.18;3.20;;;;;;;;;;5019879;28;20017;-70
2023/05/15 13:36:21;;;;;;;14.00;3.67;;;;;;;;;;5021214;28;20025;-70
2023/05/15 13:38:47;;;;;;;15.10;3.30;;;;;;;;;;5029347;28;20031;-66
2023/05/15 13:41:12;;;;;;;12.45;2.88;;;;;;;;;;5016006;28;20021;-68
2023/05/15 13:43:37;;;;;;;11.50;2.63;;;;;;;;;;5007961;28;20113;-66
2023/05/15 13:46:03;;;;;;;14.03;2.70;;;;;;;;;;5012154;28;20108;-69
2023/05/15 13:48:28;;;;;;;7.93;2.60;;;;;;;;;;5002148;28;20732;-68
2023/05/15 13:50:53;;;;;;;9.15;3.00;;;;;;;;;;4995331;28;20031;-65
2023/05/15 13:53:20;;;;;;;12.15;2.53;;;;;;;;;;5019063;28;20554;-67
2023/05/15 13:55:45;;;;;;;5.82;2.63;;;;;;;;;;5021758;28;20018;-67
2023/05/15 13:58:11;;;;;;;9.20;2.85;;;;;;;;;;5008153;28;20109;-66
2023/05/15 14:00:36;;;;;;;7.25;2.60;;;;;;;;;;5024281;28;20029;-68
2023/05/15 14:03:01;;;;;;;7.22;2.35;;;;;;;;;;5019885;28;20030;-67
2023/05/15 14:05:26;;;;;;;13.20;2.75;;;;;;;;;;5023893;28;20017;-68
2023/05/15 14:07:52;;;;;;;8.68;2.20;;;;;;;;;;5018087;28;20070;-67
2023/05/15 14:10:17;;;;;;;7.13;2.40;;;;;;;;;;4991035;28;20022;-68
2023/05/15 14:12:42;;;;;;;10.00;2.78;;;;;;;;;;5017923;28;20026;-67
2023/05/15 14:15:10;;;;;;;8.43;2.40;;;;;;;;;;5021291;28;20021;-69
2023/05/15 14:17:35;;;;;;;4.85;2.30;;;;;;;;;;5011516;28;20037;-68
2023/05/15 14:20:00;;;;;;;6.65;2.50;;;;;;;;;;5020755;28;20022;-69
2023/05/15 14:22:25;;;;;;;5.22;1.95;;;;;;;;;;5007208;28;20053;-66
2023/05/15 14:24:51;;;;;;;15.00;2.50;;;;;;;;;;5011154;28;20034;-67
2023/05/15 14:27:16;;;;;;;4.93;2.40;;;;;;;;;;5001685;28;20483;-66
2023/05/15 14:29:43;;;;;;;6.38;2.33;;;;;;;;;;5009050;28;20177;-66